createdAt,value
2022-11-24T00:00:34.047Z,11.32
2022-11-24T00:15:36.006Z,11.98
2022-11-24T00:30:38.069Z,12.93
2022-11-24T00:45:40.308Z,16.20
2022-11-24T01:00:42.370Z,16.85
2022-11-24T01:15:44.358Z,15.32
2022-11-24T01:30:47.723Z,17.42
2022-11-24T01:45:51.234Z,16.00
2022-11-24T02:00:54.207Z,15.35
2022-11-24T02:15:56.396Z,14.45
2022-11-24T02:31:01.296Z,15.95
2022-11-24T02:46:03.388Z,19.17
2022-11-24T03:01:05.539Z,17.27
2022-11-24T03:16:10.858Z,16.38
2022-11-24T03:31:13.531Z,16.38
2022-11-24T03:46:15.548Z,14.90
2022-11-24T04:01:17.546Z,14.77
2022-11-24T04:16:19.562Z,13.57
2022-11-24T04:31:21.530Z,11.48
2022-11-24T04:46:23.505Z,10.27
2022-11-24T05:01:25.536Z,10.07
2022-11-24T05:16:27.598Z,9.65
2022-11-24T05:31:29.578Z,8.57
2022-11-24T05:46:31.546Z,8.27
2022-11-24T06:01:33.490Z,9.40
2022-11-24T06:16:35.479Z,8.68
2022-11-24T06:31:37.665Z,9.35
2022-11-24T06:46:39.635Z,8.52
2022-11-24T07:01:41.579Z,9.35
2022-11-24T07:16:43.531Z,10.27
2022-11-24T07:31:46.267Z,11.45
2022-11-24T07:46:50.339Z,10.85
2022-11-24T08:01:52.368Z,9.75
2022-11-24T08:16:54.365Z,9.85
2022-11-24T08:31:59.342Z,9.07
2022-11-24T08:47:01.272Z,10.98
2022-11-24T09:02:03.258Z,11.90
2022-11-24T09:17:05.371Z,10.73
2022-11-24T09:32:07.338Z,11.38
2022-11-24T09:47:42.849Z,11.23
2022-11-24T10:02:48.626Z,11.05
2022-11-24T10:18:16.814Z,16.83
2022-11-24T10:33:27.097Z,12.68
2022-11-24T10:48:39.959Z,12.50
2022-11-24T11:03:50.754Z,13.20
2022-11-24T11:18:53.491Z,15.82
2022-11-24T11:34:21.899Z,15.05
2022-11-24T11:49:27.220Z,15.10
2022-11-24T12:04:47.689Z,14.73
2022-11-24T12:34:57.256Z,13.70
2022-11-24T12:50:18.962Z,12.25
2022-11-24T13:05:24.041Z,17.50
2022-11-24T13:20:32.503Z,15.10
2022-11-24T13:35:34.361Z,18.88
2022-11-24T13:50:52.324Z,20.02
2022-11-24T14:05:57.141Z,24.15
2022-11-24T14:21:01.790Z,23.25
2022-11-24T14:36:04.004Z,21.65
2022-11-24T14:51:15.246Z,21.33
2022-11-24T15:06:20.100Z,21.50
2022-11-24T15:21:36.261Z,27.90
2022-11-24T15:36:38.292Z,27.83
2022-11-24T15:51:44.132Z,24.67
2022-11-24T16:06:46.088Z,26.02
2022-11-24T16:21:48.959Z,29.65
2022-11-24T16:36:50.848Z,22.85
2022-11-24T16:51:54.054Z,26.35
2022-11-24T17:06:58.881Z,23.13
2022-11-24T17:22:00.930Z,20.60
2022-11-24T17:37:02.906Z,18.95
2022-11-24T17:52:04.988Z,18.30
2022-11-24T18:07:06.847Z,16.55
2022-11-24T18:22:08.719Z,17.15
2022-11-24T18:37:13.706Z,16.52
2022-11-24T18:52:15.704Z,17.65
2022-11-24T19:07:17.651Z,15.18
2022-11-24T19:22:19.741Z,17.67
2022-11-24T19:37:23.697Z,18.75
2022-11-24T19:52:27.491Z,20.10
2022-11-24T20:07:29.553Z,20.80
2022-11-24T20:22:31.999Z,19.92
2022-11-24T20:37:49.349Z,19.63
2022-11-24T20:52:51.502Z,21.95
2022-11-24T21:07:54.216Z,24.23
2022-11-24T21:22:56.160Z,26.98
2022-11-24T21:37:58.722Z,27.10
2022-11-24T21:53:03.461Z,26.15
2022-11-24T22:08:05.780Z,26.77
2022-11-24T22:23:07.719Z,24.00
2022-11-24T22:38:09.700Z,25.83
2022-11-24T22:53:11.640Z,27.75
2022-11-24T23:08:13.599Z,23.95
2022-11-24T23:23:15.467Z,25.15
2022-11-24T23:38:17.358Z,24.30
2022-11-24T23:53:19.608Z,24.65
